Time;durP1;ratioP1;P1;durP2;ratioP2;P2;SDS_P1;SDS_P2;PMS_P1;PMS_P2;Temp;Humidity;BMP_temperature;BMP_pressure;BME280_temperature;BME280_humidity;BME280_pressure;Samples;Min_cycle;Max_cycle;Signal;HPM_P1;HPM_P2
2023/09/16 00:01:30;;;;;;;19.98;14.70;;;;;;;-140.66;100.00;55571.53;5073481;28;20074;-71
2023/09/16 00:04:56;;;;;;;20.63;14.48;;;;;;;-140.66;100.00;55571.53;5073431;28;20028;-70
2023/09/16 00:08:39;;;;;;;19.33;13.98;;;;;;;-140.66;100.00;55571.53;5059718;28;20123;-71
2023/09/16 00:12:24;;;;;;;18.95;13.80;;;;;;;-140.66;100.00;55571.53;5065689;28;20427;-71
2023/09/16 00:16:08;;;;;;;20.23;14.95;;;;;;;-140.66;100.00;55571.53;5072122;28;20029;-71
2023/09/16 00:19:53;;;;;;;18.67;13.82;;;;;;;-140.66;100.00;55571.53;5068983;28;20028;-71
2023/09/16 00:23:38;;;;;;;17.83;13.43;;;;;;;-140.66;100.00;55571.53;5067639;28;20052;-72
2023/09/16 00:27:22;;;;;;;18.65;13.90;;;;;;;-140.66;100.00;55571.53;5064647;28;20039;-71
2023/09/16 00:31:07;;;;;;;18.85;14.02;;;;;;;-140.66;100.00;55571.53;5070514;28;20119;-72
2023/09/16 00:34:52;;;;;;;18.60;14.77;;;;;;;-140.66;100.00;55571.53;5069388;28;20040;-71
2023/09/16 00:38:36;;;;;;;17.55;14.93;;;;;;;-140.66;100.00;55571.53;5070310;28;20024;-71
2023/09/16 00:42:21;;;;;;;20.95;15.25;;;;;;;-140.66;100.00;55571.53;5077493;28;20451;-71
2023/09/16 00:46:06;;;;;;;21.63;15.35;;;;;;;-140.66;100.00;55571.53;5074504;28;20055;-71
2023/09/16 00:49:50;;;;;;;20.38;15.25;;;;;;;-140.66;100.00;55571.53;5072547;28;20089;-70
2023/09/16 00:53:36;;;;;;;21.55;15.82;;;;;;;-140.66;100.00;55571.53;5063780;28;20093;-71
2023/09/16 00:57:21;;;;;;;23.55;14.65;;;;;;;-140.66;100.00;55571.53;5076697;28;20350;-71
2023/09/16 01:01:05;;;;;;;18.02;13.50;;;;;;;-140.66;100.00;55571.53;5074541;28;20111;-71
2023/09/16 01:04:50;;;;;;;21.10;15.52;;;;;;;-140.66;100.00;55571.53;5072014;28;20029;-71
2023/09/16 01:08:37;;;;;;;19.33;15.43;;;;;;;-140.66;100.00;55571.53;5055799;28;20041;-71
2023/09/16 01:12:21;;;;;;;17.33;14.80;;;;;;;-140.66;100.00;55571.53;5068816;28;20072;-71
2023/09/16 01:16:35;;;;;;;19.60;14.57;;;;;;;-140.66;100.00;55571.53;5073751;28;20422;-71
2023/09/16 01:20:21;;;;;;;17.90;14.50;;;;;;;-140.66;100.00;55571.53;5069285;28;20040;-71
2023/09/16 01:24:18;;;;;;;22.83;15.27;;;;;;;-140.66;100.00;55571.53;5074321;28;20354;-72
2023/09/16 01:28:03;;;;;;;19.10;14.77;;;;;;;-140.66;100.00;55571.53;5059201;28;20032;-71
2023/09/16 01:31:48;;;;;;;21.10;15.68;;;;;;;-140.66;100.00;55571.53;5071598;28;20116;-71
2023/09/16 01:35:40;;;;;;;18.40;15.07;;;;;;;-140.66;100.00;55571.53;5069593;28;20442;-71
2023/09/16 01:39:29;;;;;;;20.65;15.40;;;;;;;-140.66;100.00;55571.53;5068716;28;20031;-71
2023/09/16 01:43:15;;;;;;;20.10;15.27;;;;;;;-140.66;100.00;55571.53;5074763;28;20024;-72
2023/09/16 01:46:45;;;;;;;20.13;15.52;;;;;;;-140.66;100.00;55571.53;5071878;28;20033;-71
2023/09/16 01:49:51;;;;;;;18.33;14.65;;;;;;;-140.66;100.00;55571.53;5074690;28;20032;-72
2023/09/16 01:53:07;;;;;;;18.65;14.60;;;;;;;-140.66;100.00;55571.53;5074563;28;20036;-71
2023/09/16 01:56:11;;;;;;;18.15;15.05;;;;;;;-140.66;100.00;55571.53;5057210;28;20044;-71
2023/09/16 01:59:44;;;;;;;18.92;14.38;;;;;;;-140.66;100.00;55571.53;5072055;28;20032;-71
2023/09/16 02:03:28;;;;;;;20.25;14.32;;;;;;;-140.66;100.00;55571.53;5067724;28;20339;-70
2023/09/16 02:07:13;;;;;;;20.05;14.98;;;;;;;-140.66;100.00;55571.53;5072936;28;20041;-71
2023/09/16 02:10:57;;;;;;;17.92;13.40;;;;;;;-140.66;100.00;55571.53;5071008;28;20020;-72
2023/09/16 02:14:41;;;;;;;19.10;14.25;;;;;;;-140.66;100.00;55571.53;5074749;28;20035;-70
2023/09/16 02:18:25;;;;;;;20.15;14.93;;;;;;;-140.66;100.00;55571.53;5066845;28;20033;-71
2023/09/16 02:22:01;;;;;;;17.45;14.70;;;;;;;-140.66;100.00;55571.53;5073548;28;20024;-71
2023/09/16 02:25:06;;;;;;;19.58;14.23;;;;;;;-140.66;100.00;55571.53;5069115;28;20037;-71
2023/09/16 02:28:14;;;;;;;19.48;15.35;;;;;;;-140.66;100.00;55571.53;5070481;28;20062;-70
2023/09/16 02:31:29;;;;;;;19.23;15.20;;;;;;;-140.66;100.00;55571.53;5057530;28;20024;-71
2023/09/16 02:34:27;;;;;;;20.65;15.02;;;;;;;-140.66;100.00;55571.53;5060215;28;20103;-72
2023/09/16 02:37:29;;;;;;;19.90;16.05;;;;;;;-140.66;100.00;55571.53;5059747;28;20028;-71
2023/09/16 02:40:31;;;;;;;22.23;15.63;;;;;;;-140.66;100.00;55571.53;5076136;28;20044;-71
2023/09/16 02:43:43;;;;;;;23.50;17.45;;;;;;;-140.66;100.00;55571.53;5061422;28;20111;-71
2023/09/16 02:46:50;;;;;;;22.73;17.00;;;;;;;-140.66;100.00;55571.53;5075057;28;20020;-70
2023/09/16 02:49:40;;;;;;;20.67;16.98;;;;;;;-140.66;100.00;55571.53;5074696;28;20033;-71
2023/09/16 02:53:23;;;;;;;21.08;15.43;;;;;;;-140.66;100.00;55571.53;5074096;28;20032;-71
2023/09/16 02:56:23;;;;;;;20.48;14.55;;;;;;;-140.66;100.00;55571.53;5071982;28;20033;-71
2023/09/16 02:59:39;;;;;;;20.08;15.45;;;;;;;-140.66;100.00;55571.53;5073545;28;20032;-71
2023/09/16 03:03:24;;;;;;;18.50;14.55;;;;;;;-140.66;100.00;55571.53;5074696;28;20032;-71
2023/09/16 03:06:17;;;;;;;19.10;15.02;;;;;;;-140.66;100.00;55571.53;5072173;28;20041;-72
2023/09/16 03:09:10;;;;;;;18.02;13.82;;;;;;;-140.66;100.00;55571.53;5072805;28;20047;-71
2023/09/16 03:12:54;;;;;;;16.98;14.57;;;;;;;-140.66;100.00;55571.53;5074514;28;20056;-71
2023/09/16 03:16:42;;;;;;;18.38;13.95;;;;;;;-140.66;100.00;55571.53;5067404;28;20169;-71
2023/09/16 03:20:26;;;;;;;20.85;15.10;;;;;;;-140.66;100.00;55571.53;5066745;28;20110;-72
2023/09/16 03:24:10;;;;;;;17.13;13.70;;;;;;;-140.66;100.00;55571.53;5072379;28;20028;-72
2023/09/16 03:27:54;;;;;;;15.77;12.43;;;;;;;-140.66;100.00;55571.53;5069307;28;20016;-72
2023/09/16 03:31:39;;;;;;;20.40;13.90;;;;;;;-140.66;100.00;55571.53;5067818;28;20024;-72
2023/09/16 03:35:24;;;;;;;19.02;13.85;;;;;;;-140.66;100.00;55571.53;5065919;28;20070;-72
2023/09/16 03:39:08;;;;;;;18.08;13.38;;;;;;;-140.66;100.00;55571.53;5057891;28;20025;-71
2023/09/16 03:42:54;;;;;;;16.27;13.93;;;;;;;-140.66;100.00;55571.53;5069820;28;20111;-73
2023/09/16 03:46:39;;;;;;;16.52;13.07;;;;;;;-140.66;100.00;55571.53;5053282;28;20027;-71
2023/09/16 03:50:23;;;;;;;17.83;12.80;;;;;;;-140.66;100.00;55571.53;5051554;28;20115;-72
2023/09/16 03:54:07;;;;;;;16.40;12.40;;;;;;;-140.66;100.00;55571.53;5057565;28;20029;-71
2023/09/16 03:57:52;;;;;;;16.63;13.23;;;;;;;-140.66;100.00;55571.53;5069532;28;20033;-71
2023/09/16 04:01:36;;;;;;;19.67;13.52;;;;;;;-140.66;100.00;55571.53;5066944;28;20108;-71
2023/09/16 04:05:20;;;;;;;17.23;13.70;;;;;;;-140.66;100.00;55571.53;5074541;28;20028;-71
2023/09/16 04:09:04;;;;;;;16.75;13.50;;;;;;;-140.66;100.00;55571.53;5074074;28;20079;-71
2023/09/16 04:12:49;;;;;;;20.60;13.80;;;;;;;-140.66;100.00;55571.53;5076777;28;20039;-71
2023/09/16 04:16:33;;;;;;;21.67;14.18;;;;;;;-140.66;100.00;55571.53;5076912;28;20048;-71
2023/09/16 04:20:19;;;;;;;18.98;13.73;;;;;;;-140.66;100.00;55571.53;5077637;28;20366;-72
2023/09/16 04:24:03;;;;;;;18.15;12.90;;;;;;;-140.66;100.00;55571.53;5076332;28;20059;-72
2023/09/16 04:27:47;;;;;;;19.83;13.48;;;;;;;-140.66;100.00;55571.53;5077334;28;20055;-72
2023/09/16 04:31:37;;;;;;;19.35;13.88;;;;;;;-140.66;100.00;55571.53;5077741;28;20376;-72
2023/09/16 04:35:21;;;;;;;17.40;13.13;;;;;;;-140.66;100.00;55571.53;5076868;28;20024;-71
2023/09/16 04:39:05;;;;;;;21.20;13.95;;;;;;;-140.66;100.00;55571.53;5076417;28;20028;-72
2023/09/16 04:42:49;;;;;;;18.70;13.43;;;;;;;-140.66;100.00;55571.53;5077238;28;20035;-72
2023/09/16 04:46:34;;;;;;;16.73;13.68;;;;;;;-140.66;100.00;55571.53;5077946;28;20028;-70
2023/09/16 04:50:18;;;;;;;24.10;13.93;;;;;;;-140.66;100.00;55571.53;5062086;28;20366;-70
2023/09/16 04:54:04;;;;;;;19.27;13.68;;;;;;;-140.66;100.00;55571.53;5077100;28;20111;-71
2023/09/16 04:57:48;;;;;;;19.02;13.90;;;;;;;-140.66;100.00;55571.53;5076668;28;20020;-70
2023/09/16 05:01:33;;;;;;;18.63;13.38;;;;;;;-140.66;100.00;55571.53;5076745;28;20094;-70
2023/09/16 05:05:17;;;;;;;18.02;12.93;;;;;;;-140.66;100.00;55571.53;5067561;28;20446;-71
2023/09/16 05:09:01;;;;;;;18.05;13.35;;;;;;;-140.66;100.00;55571.53;5056127;28;20041;-72
2023/09/16 05:12:18;;;;;;;18.08;13.20;;;;;;;-140.66;100.00;55571.53;5057340;28;20032;-71
2023/09/16 05:15:12;;;;;;;18.80;12.88;;;;;;;-140.66;100.00;55571.53;5056452;28;20033;-71
2023/09/16 05:18:11;;;;;;;16.20;13.10;;;;;;;-140.66;100.00;55571.53;5057335;28;20366;-71
2023/09/16 05:21:16;;;;;;;19.13;13.02;;;;;;;-140.66;100.00;55571.53;5056094;28;20029;-71
2023/09/16 05:24:58;;;;;;;17.45;12.73;;;;;;;-140.66;100.00;55571.53;5055909;28;20384;-70
2023/09/16 05:28:44;;;;;;;16.38;12.40;;;;;;;-140.66;100.00;55571.53;5056427;28;20040;-71
2023/09/16 05:32:28;;;;;;;16.52;12.18;;;;;;;-140.66;100.00;55571.53;5056232;28;20021;-71
2023/09/16 05:36:12;;;;;;;16.55;12.35;;;;;;;-140.66;100.00;55571.53;5055981;28;20058;-71
2023/09/16 05:39:56;;;;;;;19.67;12.02;;;;;;;-140.66;100.00;55571.53;5055790;28;20108;-71
2023/09/16 05:43:40;;;;;;;18.38;12.52;;;;;;;-140.66;100.00;55571.53;5056275;28;20442;-71
2023/09/16 05:47:27;;;;;;;14.52;12.02;;;;;;;-140.66;100.00;55571.53;5056049;28;20111;-72
2023/09/16 05:51:12;;;;;;;16.40;12.15;;;;;;;-140.66;100.00;55571.53;5055164;28;20039;-70
2023/09/16 05:54:57;;;;;;;16.00;11.35;;;;;;;-140.66;100.00;55571.53;5055168;28;20021;-73
2023/09/16 05:58:18;;;;;;;15.93;12.88;;;;;;;-140.66;100.00;55571.53;5056003;28;20029;-71
2023/09/16 06:01:25;;;;;;;15.43;12.60;;;;;;;-140.66;100.00;55571.53;5054926;28;20163;-71
2023/09/16 06:04:25;;;;;;;14.90;12.18;;;;;;;-140.66;100.00;55571.53;5054274;28;20035;-71
2023/09/16 06:07:14;;;;;;;16.70;13.05;;;;;;;-140.66;100.00;55571.53;5055849;28;20045;-71
2023/09/16 06:10:39;;;;;;;17.52;12.30;;;;;;;-140.66;100.00;55571.53;5054974;28;20470;-71
2023/09/16 06:14:23;;;;;;;17.35;12.00;;;;;;;-140.66;100.00;55571.53;5055171;28;20459;-71
2023/09/16 06:18:08;;;;;;;17.00;11.73;;;;;;;-140.66;100.00;55571.53;5054504;28;20037;-71
2023/09/16 06:21:52;;;;;;;15.60;10.95;;;;;;;-140.66;100.00;55571.53;5054257;28;20035;-71
2023/09/16 06:25:38;;;;;;;17.40;11.27;;;;;;;-140.66;100.00;55571.53;5054727;28;20028;-71
2023/09/16 06:28:28;;;;;;;17.95;12.05;;;;;;;-140.66;100.00;55571.53;5054297;28;20039;-72
2023/09/16 06:32:13;;;;;;;15.98;11.85;;;;;;;-140.66;100.00;55571.53;5054658;28;20523;-72
2023/09/16 06:35:57;;;;;;;14.05;10.88;;;;;;;-140.66;100.00;55571.53;5055121;28;20068;-71
2023/09/16 06:39:46;;;;;;;14.68;10.88;;;;;;;-140.66;100.00;55571.53;5040773;28;20410;-72
2023/09/16 06:43:30;;;;;;;16.15;11.52;;;;;;;-140.66;100.00;55571.53;5040637;28;20020;-72
2023/09/16 06:47:15;;;;;;;17.15;11.98;;;;;;;-140.66;100.00;55571.53;5041351;28;20029;-71
2023/09/16 06:50:59;;;;;;;15.80;11.73;;;;;;;-140.66;100.00;55571.53;5039120;28;20504;-70
2023/09/16 06:54:45;;;;;;;13.98;12.13;;;;;;;-140.66;100.00;55571.53;5041175;28;20036;-71
2023/09/16 06:57:36;;;;;;;17.38;13.38;;;;;;;-140.66;100.00;55571.53;5054443;28;20040;-70
2023/09/16 07:01:23;;;;;;;17.10;11.63;;;;;;;-140.66;100.00;55571.53;5055255;28;20036;-72
2023/09/16 07:05:07;;;;;;;16.77;11.45;;;;;;;-140.66;100.00;55571.53;5055036;28;20028;-72
2023/09/16 07:08:52;;;;;;;14.00;11.43;;;;;;;-140.66;100.00;55571.53;5054923;28;20122;-71
2023/09/16 07:11:39;;;;;;;16.70;11.65;;;;;;;-140.66;100.00;55571.53;5054524;28;20061;-72
2023/09/16 07:14:28;;;;;;;18.52;11.48;;;;;;;-140.66;100.00;55571.53;5054744;28;20029;-72
2023/09/16 07:17:36;;;;;;;16.98;13.38;;;;;;;-140.66;100.00;55571.53;5054198;28;20455;-71
2023/09/16 07:21:23;;;;;;;15.82;12.02;;;;;;;-140.66;100.00;55571.53;5054601;28;20028;-72
2023/09/16 07:25:07;;;;;;;13.32;9.82;;;;;;;-140.66;100.00;55571.53;5053851;28;20021;-72
2023/09/16 07:28:51;;;;;;;13.15;10.18;;;;;;;-140.66;100.00;55571.53;5040178;28;20447;-71
2023/09/16 07:32:39;;;;;;;14.00;10.30;;;;;;;-140.66;100.00;55571.53;5040957;28;20037;-72
2023/09/16 07:36:23;;;;;;;13.90;9.80;;;;;;;-140.66;100.00;55571.53;5054197;28;20029;-71
2023/09/16 07:40:07;;;;;;;18.27;11.18;;;;;;;-140.66;100.00;55571.53;5053201;28;20562;-72
2023/09/16 07:43:52;;;;;;;12.52;10.73;;;;;;;-140.66;100.00;55571.53;5053706;28;20386;-71
2023/09/16 07:47:36;;;;;;;15.38;11.77;;;;;;;-140.66;100.00;55571.53;5058709;28;20351;-71
2023/09/16 07:51:20;;;;;;;13.77;10.95;;;;;;;-140.66;100.00;55571.53;5058436;28;20374;-70
2023/09/16 07:55:07;;;;;;;16.75;12.05;;;;;;;-140.66;100.00;55571.53;5058381;28;20036;-71
2023/09/16 07:58:51;;;;;;;15.18;12.05;;;;;;;-140.66;100.00;55571.53;5058060;28;20029;-72
2023/09/16 08:02:36;;;;;;;14.32;11.63;;;;;;;-140.66;100.00;55571.53;5058866;28;20029;-71
2023/09/16 08:06:20;;;;;;;15.55;10.90;;;;;;;-140.66;100.00;55571.53;5057867;28;20056;-71
2023/09/16 08:10:04;;;;;;;15.55;10.95;;;;;;;-140.66;100.00;55571.53;5077378;28;20024;-72
2023/09/16 08:13:51;;;;;;;14.05;10.82;;;;;;;-140.66;100.00;55571.53;5077981;28;20109;-71
2023/09/16 08:17:37;;;;;;;15.70;11.60;;;;;;;-140.66;100.00;55571.53;5077682;28;20116;-71
2023/09/16 08:21:22;;;;;;;21.77;13.02;;;;;;;-140.66;100.00;55571.53;5063402;28;20024;-71
2023/09/16 08:25:06;;;;;;;14.05;10.57;;;;;;;-140.66;100.00;55571.53;5077376;28;20020;-71
2023/09/16 08:28:50;;;;;;;20.52;12.77;;;;;;;-140.66;100.00;55571.53;5077193;28;20024;-70
2023/09/16 08:32:13;;;;;;;18.05;12.50;;;;;;;-140.66;100.00;55571.53;5077754;28;20029;-72
2023/09/16 08:35:52;;;;;;;15.40;11.23;;;;;;;-140.66;100.00;55571.53;5076335;28;20024;-72
2023/09/16 08:39:37;;;;;;;17.55;10.52;;;;;;;-140.66;100.00;55571.53;5077790;28;20040;-71
2023/09/16 08:43:34;;;;;;;17.40;10.95;;;;;;;-140.66;100.00;55571.53;5077078;28;20549;-71
2023/09/16 08:47:39;;;;;;;14.85;11.23;;;;;;;-140.66;100.00;55571.53;5062444;28;20056;-72
2023/09/16 08:51:24;;;;;;;17.73;11.23;;;;;;;-140.66;100.00;55571.53;5076873;28;20036;-71
2023/09/16 08:55:12;;;;;;;16.17;12.55;;;;;;;-140.66;100.00;55571.53;5077128;28;20344;-72
2023/09/16 08:59:02;;;;;;;17.98;12.43;;;;;;;-140.66;100.00;55571.53;5077168;28;20396;-71
2023/09/16 09:02:48;;;;;;;23.45;18.17;;;;;;;-140.66;100.00;55571.53;5076617;28;20028;-70
2023/09/16 09:06:33;;;;;;;18.90;13.05;;;;;;;-140.66;100.00;55571.53;5076796;28;20041;-70
2023/09/16 09:10:17;;;;;;;18.95;12.15;;;;;;;-140.66;100.00;55571.53;5076775;28;20060;-71
2023/09/16 09:14:10;;;;;;;15.93;12.48;;;;;;;-140.66;100.00;55571.53;5076943;28;20442;-71
2023/09/16 09:17:57;;;;;;;17.45;11.95;;;;;;;-140.66;100.00;55571.53;5062150;28;20438;-71
2023/09/16 09:21:43;;;;;;;15.35;12.45;;;;;;;-140.66;100.00;55571.53;5062249;28;20036;-70
2023/09/16 09:25:28;;;;;;;18.17;13.93;;;;;;;-140.66;100.00;55571.53;5076301;28;20450;-71
2023/09/16 09:29:13;;;;;;;19.25;13.82;;;;;;;-140.66;100.00;55571.53;5076254;28;20454;-72
2023/09/16 09:32:57;;;;;;;18.55;12.98;;;;;;;-140.66;100.00;55571.53;5076042;28;20035;-71
2023/09/16 09:36:44;;;;;;;21.27;12.80;;;;;;;-140.66;100.00;55571.53;5076489;28;20028;-71
2023/09/16 09:40:29;;;;;;;18.42;13.25;;;;;;;-140.66;100.00;55571.53;5076257;28;20032;-72
2023/09/16 09:44:17;;;;;;;14.48;11.98;;;;;;;-140.66;100.00;55571.53;5075109;28;20043;-71
2023/09/16 09:48:02;;;;;;;16.55;12.25;;;;;;;-140.66;100.00;55571.53;5060708;28;20074;-71
2023/09/16 09:51:48;;;;;;;16.13;12.30;;;;;;;-140.66;100.00;55571.53;5076020;28;20036;-71
2023/09/16 09:55:32;;;;;;;15.80;12.07;;;;;;;-140.66;100.00;55571.53;5075873;28;20359;-71
2023/09/16 09:59:16;;;;;;;16.73;11.70;;;;;;;-140.66;100.00;55571.53;5066061;28;20036;-71
2023/09/16 10:03:02;;;;;;;19.30;12.77;;;;;;;-140.66;100.00;55571.53;5075724;28;20115;-72
2023/09/16 10:06:46;;;;;;;19.40;13.25;;;;;;;-140.66;100.00;55571.53;5075564;28;20048;-71
2023/09/16 10:10:30;;;;;;;20.23;13.13;;;;;;;-140.66;100.00;55571.53;5075654;28;20025;-71
2023/09/16 10:14:15;;;;;;;21.13;12.95;;;;;;;-140.66;100.00;55571.53;5075127;28;20166;-72
2023/09/16 10:18:00;;;;;;;20.70;12.50;;;;;;;-140.66;100.00;55571.53;5075561;28;20032;-72
2023/09/16 10:21:45;;;;;;;18.80;12.98;;;;;;;-140.66;100.00;55571.53;5075811;28;20438;-72
2023/09/16 10:25:29;;;;;;;18.00;13.25;;;;;;;-140.66;100.00;55571.53;5074147;28;20100;-71
2023/09/16 10:29:16;;;;;;;19.02;12.95;;;;;;;-140.66;100.00;55571.53;5075110;28;20024;-72
2023/09/16 10:33:01;;;;;;;18.08;12.98;;;;;;;-140.66;100.00;55571.53;5075159;28;20450;-72
2023/09/16 10:36:17;;;;;;;25.10;14.80;;;;;;;-140.66;100.00;55571.53;5074907;28;20166;-72
2023/09/16 10:39:05;;;;;;;21.75;13.45;;;;;;;-140.66;100.00;55571.53;5073533;28;20024;-71
2023/09/16 10:41:52;;;;;;;19.65;13.73;;;;;;;-140.66;100.00;55571.53;5073920;28;20028;-71
2023/09/16 10:44:39;;;;;;;17.77;13.40;;;;;;;-140.66;100.00;55571.53;5074550;28;20098;-71
2023/09/16 10:47:25;;;;;;;20.92;13.48;;;;;;;-140.66;100.00;55571.53;5075288;28;20032;-71
2023/09/16 10:50:12;;;;;;;18.83;14.05;;;;;;;-140.66;100.00;55571.53;5074423;28;20358;-72
2023/09/16 10:53:05;;;;;;;19.73;12.98;;;;;;;-140.66;100.00;55571.53;5061073;28;20024;-72
2023/09/16 10:56:07;;;;;;;16.15;13.13;;;;;;;-140.66;100.00;55571.53;5060944;28;20166;-71
2023/09/16 10:59:10;;;;;;;19.42;12.43;;;;;;;-140.66;100.00;55571.53;5073961;28;20458;-71
2023/09/16 11:02:09;;;;;;;22.15;12.98;;;;;;;-140.66;100.00;55571.53;5075003;28;20039;-71
2023/09/16 11:04:56;;;;;;;19.17;13.10;;;;;;;-140.66;100.00;55571.53;5074258;28;20052;-72
2023/09/16 11:07:42;;;;;;;17.52;11.77;;;;;;;-140.66;100.00;55571.53;5073722;28;20021;-71
2023/09/16 11:10:29;;;;;;;22.92;11.65;;;;;;;-140.66;100.00;55571.53;5074212;28;20052;-71
2023/09/16 11:13:17;;;;;;;15.35;11.82;;;;;;;-140.66;100.00;55571.53;5074384;28;20040;-71
2023/09/16 11:16:09;;;;;;;12.95;11.00;;;;;;;-140.66;100.00;55571.53;5073574;28;20020;-71
2023/09/16 11:18:59;;;;;;;17.65;11.95;;;;;;;-140.66;100.00;55571.53;5059608;28;20031;-71
2023/09/16 11:21:48;;;;;;;17.73;12.13;;;;;;;-140.66;100.00;55571.53;5073295;28;20059;-71
2023/09/16 11:24:37;;;;;;;16.52;11.75;;;;;;;-140.66;100.00;55571.53;5074111;28;20024;-71
2023/09/16 11:27:24;;;;;;;14.95;11.35;;;;;;;-140.66;100.00;55571.53;5058699;28;20025;-72
2023/09/16 11:30:18;;;;;;;16.15;12.00;;;;;;;-140.66;100.00;55571.53;5074210;28;20093;-72
2023/09/16 11:33:27;;;;;;;20.05;13.13;;;;;;;-140.66;100.00;55571.53;5060362;28;20040;-71
2023/09/16 11:36:18;;;;;;;24.80;12.55;;;;;;;-140.66;100.00;55571.53;5060906;28;20360;-71
2023/09/16 11:39:43;;;;;;;20.45;12.20;;;;;;;-140.66;100.00;55571.53;5060185;28;20033;-71
2023/09/16 11:43:27;;;;;;;15.88;11.98;;;;;;;-140.66;100.00;55571.53;5060618;28;20024;-72
2023/09/16 11:47:14;;;;;;;21.42;12.70;;;;;;;-140.66;100.00;55571.53;5073964;28;20024;-71
2023/09/16 11:50:58;;;;;;;18.88;12.27;;;;;;;-140.66;100.00;55571.53;5075216;28;20036;-72
2023/09/16 11:54:45;;;;;;;18.58;12.13;;;;;;;-140.66;100.00;55571.53;5073152;28;20024;-72
2023/09/16 11:58:29;;;;;;;15.07;11.93;;;;;;;-140.66;100.00;55571.53;5073647;28;20024;-72
2023/09/16 12:02:20;;;;;;;20.50;12.45;;;;;;;-140.66;100.00;55571.53;5059376;28;20032;-72
2023/09/16 12:06:02;;;;;;;19.05;12.80;;;;;;;-140.66;100.00;55571.53;5073079;28;20424;-72
2023/09/16 12:09:47;;;;;;;18.98;11.85;;;;;;;-140.66;100.00;55571.53;5074497;28;20426;-71
2023/09/16 12:13:31;;;;;;;18.27;11.85;;;;;;;-140.66;100.00;55571.53;5072511;28;20029;-71
2023/09/16 12:17:15;;;;;;;21.60;12.30;;;;;;;-140.66;100.00;55571.53;5073679;28;20093;-71
2023/09/16 12:21:00;;;;;;;17.50;12.07;;;;;;;-140.66;100.00;55571.53;5073672;28;20441;-71
2023/09/16 12:24:44;;;;;;;16.80;11.70;;;;;;;-140.66;100.00;55571.53;5073775;28;20039;-72
2023/09/16 12:28:28;;;;;;;14.80;11.60;;;;;;;-140.66;100.00;55571.53;5058580;28;20017;-71
2023/09/16 12:32:21;;;;;;;20.25;13.18;;;;;;;-140.66;100.00;55571.53;5075655;28;20036;-72
2023/09/16 12:36:07;;;;;;;18.23;11.75;;;;;;;-140.66;100.00;55571.53;5078024;28;20028;-72
2023/09/16 12:39:51;;;;;;;26.38;12.52;;;;;;;-140.66;100.00;55571.53;5077044;28;20032;-71
2023/09/16 12:43:36;;;;;;;20.02;11.25;;;;;;;-140.66;100.00;55571.53;5076917;28;20032;-71
2023/09/16 12:47:21;;;;;;;14.77;11.40;;;;;;;-140.66;100.00;55571.53;5070683;28;20359;-71
2023/09/16 12:51:06;;;;;;;16.50;10.13;;;;;;;-140.66;100.00;55571.53;5077550;28;20020;-72
2023/09/16 12:54:52;;;;;;;14.48;12.23;;;;;;;-140.66;100.00;55571.53;5076979;28;20025;-72
2023/09/16 12:58:41;;;;;;;14.77;11.32;;;;;;;-140.66;100.00;55571.53;5063000;28;20050;-71
2023/09/16 13:02:25;;;;;;;16.10;11.20;;;;;;;-140.66;100.00;55571.53;5077360;28;20520;-71
2023/09/16 13:06:09;;;;;;;17.05;11.10;;;;;;;-140.66;100.00;55571.53;5062596;28;20052;-71
2023/09/16 13:09:54;;;;;;;13.63;11.20;;;;;;;-140.66;100.00;55571.53;5062627;28;20370;-71
2023/09/16 13:13:39;;;;;;;17.92;11.25;;;;;;;-140.66;100.00;55571.53;5075118;28;20055;-71
2023/09/16 13:17:28;;;;;;;14.45;11.27;;;;;;;-140.66;100.00;55571.53;5062359;28;20121;-70
2023/09/16 13:21:13;;;;;;;16.33;11.70;;;;;;;-140.66;100.00;55571.53;5076223;28;20039;-71
2023/09/16 13:24:57;;;;;;;18.65;11.73;;;;;;;-140.66;100.00;55571.53;5075253;28;20043;-71
2023/09/16 13:28:57;;;;;;;13.30;9.63;;;;;;;-140.66;100.00;55571.53;5062120;28;20033;-71
2023/09/16 13:32:52;;;;;;;15.73;10.65;;;;;;;-140.66;100.00;55571.53;5076075;28;20355;-71
2023/09/16 13:36:41;;;;;;;16.90;11.52;;;;;;;-140.66;100.00;55571.53;5075935;28;20024;-72
2023/09/16 13:40:26;;;;;;;15.98;10.60;;;;;;;-140.66;100.00;55571.53;5076583;28;20111;-72
2023/09/16 13:44:11;;;;;;;13.50;10.20;;;;;;;-140.66;100.00;55571.53;5075140;28;20028;-71
2023/09/16 13:48:15;;;;;;;13.95;10.68;;;;;;;-140.66;100.00;55571.53;5076403;28;20024;-71
2023/09/16 13:51:59;;;;;;;14.43;10.30;;;;;;;-140.66;100.00;55571.53;5075679;28;20070;-70
2023/09/16 13:55:46;;;;;;;23.23;12.30;;;;;;;-140.66;100.00;55571.53;5075627;28;20181;-72
2023/09/16 13:59:30;;;;;;;17.27;12.40;;;;;;;-140.66;100.00;55571.53;5075858;28;20054;-71
2023/09/16 14:03:15;;;;;;;14.95;11.95;;;;;;;-140.66;100.00;55571.53;5075275;28;20024;-70
2023/09/16 14:07:00;;;;;;;18.27;12.25;;;;;;;-140.66;100.00;55571.53;5074387;28;20523;-72
2023/09/16 14:10:44;;;;;;;16.05;12.35;;;;;;;-140.66;100.00;55571.53;5076251;28;20089;-71
2023/09/16 14:14:28;;;;;;;18.40;12.30;;;;;;;-140.66;100.00;55571.53;5068886;28;20036;-71
2023/09/16 14:18:12;;;;;;;15.70;11.35;;;;;;;-140.66;100.00;55571.53;5075545;28;20111;-72
2023/09/16 14:21:58;;;;;;;16.45;9.40;;;;;;;-140.66;100.00;55571.53;5075173;28;20036;-72
2023/09/16 14:25:42;;;;;;;10.23;7.78;;;;;;;-140.66;100.00;55571.53;5074321;28;20028;-71
2023/09/16 14:29:27;;;;;;;11.50;7.18;;;;;;;-140.66;100.00;55571.53;5074473;28;20049;-71
2023/09/16 14:33:11;;;;;;;8.20;6.47;;;;;;;-140.66;100.00;55571.53;5074378;28;20085;-71
2023/09/16 14:36:55;;;;;;;8.32;6.15;;;;;;;-140.66;100.00;55571.53;5074326;28;20025;-71
2023/09/16 14:40:39;;;;;;;6.85;6.07;;;;;;;-140.66;100.00;55571.53;5074500;28;20442;-72
2023/09/16 14:44:24;;;;;;;9.25;6.20;;;;;;;-140.66;100.00;55571.53;5074599;28;20036;-71
2023/09/16 14:48:08;;;;;;;13.45;7.70;;;;;;;-140.66;100.00;55571.53;5074269;28;20112;-71
2023/09/16 14:51:55;;;;;;;10.48;8.65;;;;;;;-140.66;100.00;55571.53;5074481;28;20111;-71
2023/09/16 14:55:39;;;;;;;11.40;8.77;;;;;;;-140.66;100.00;55571.53;5073435;28;20443;-71
2023/09/16 14:59:23;;;;;;;14.95;8.05;;;;;;;-140.66;100.00;55571.53;5060514;28;20036;-71
2023/09/16 15:03:07;;;;;;;8.75;7.47;;;;;;;-140.66;100.00;55571.53;5074165;28;20407;-71
2023/09/16 15:06:52;;;;;;;12.35;7.35;;;;;;;-140.66;100.00;55571.53;5073860;28;20052;-71
2023/09/16 15:10:36;;;;;;;8.90;6.45;;;;;;;-140.66;100.00;55571.53;5074476;28;20175;-70
2023/09/16 15:14:20;;;;;;;12.45;6.40;;;;;;;-140.66;100.00;55571.53;5073634;28;20029;-72
2023/09/16 15:18:02;;;;;;;10.77;6.60;;;;;;;-140.66;100.00;55571.53;5074091;28;20106;-71
2023/09/16 15:21:45;;;;;;;10.77;6.53;;;;;;;-140.66;100.00;55571.53;5060421;28;20105;-71
2023/09/16 15:25:29;;;;;;;9.40;6.57;;;;;;;-140.66;100.00;55571.53;5073406;28;20074;-71
2023/09/16 15:29:13;;;;;;;11.63;6.57;;;;;;;-140.66;100.00;55571.53;5074075;28;20363;-72
2023/09/16 15:32:57;;;;;;;10.35;6.80;;;;;;;-140.66;100.00;55571.53;5073351;28;20370;-72
2023/09/16 15:36:43;;;;;;;10.07;7.25;;;;;;;-140.66;100.00;55571.53;5060073;28;20024;-72
2023/09/16 15:40:27;;;;;;;10.85;7.88;;;;;;;-140.66;100.00;55571.53;5058960;28;20028;-72
2023/09/16 15:44:11;;;;;;;10.63;7.80;;;;;;;-140.66;100.00;55571.53;5060843;28;20466;-71
2023/09/16 15:47:56;;;;;;;11.70;7.63;;;;;;;-140.66;100.00;55571.53;5060297;28;20031;-71
2023/09/16 15:51:45;;;;;;;11.68;7.53;;;;;;;-140.66;100.00;55571.53;5073610;28;20052;-72
2023/09/16 15:55:29;;;;;;;10.20;8.05;;;;;;;-140.66;100.00;55571.53;5058466;28;20044;-72
2023/09/16 15:59:14;;;;;;;12.38;8.38;;;;;;;-140.66;100.00;55571.53;5059233;28;20028;-71